Аэропорт: Кокшетау. Кокшетау

ICAO: UACK

METAR:
2022-06-26 11:30:00
UACK 261130Z 31007MPS CAVOK 21/11 Q1001 NOSIG RMK QFE728/0970
METAR:
2022-06-26 08:04:00
TAF UACK 260804Z 2609/2618 28007MPS 9999 SCT040 BKN100 TEMPO 2609/2618 30008G13MPS -SHRA BKN040CB